البصرة, العراق

11:57 PM AST on êواêر 23, 2017 (GMT +0300)
Basrah International | | Change Station

Elev 7 ft 30.57 °N, 47.78 °E | Updated 57 minutes ago

Clear
صافية
48 °F
Feels Like 48 °F
N
9
ريح متغير ريح from غرب

هذا اليوم
High -- | Low -- °F
--% Chance of Precip.
Yesterday
High -- | Low -- °F
Precip. -- في
الضغط 30.15 في
وضوح الرؤية -9999.0 أميال
سحابات
نقطة الندى 39 °F
الرطوبة 71%
Rainfall 0.00 في
عمق الثلج Not available.
6:44 AM 5:17 PM
الهلال الأخير, 16% visible
METAR ORMM 232000Z 28008KT CAVOK 09/04 Q1021 NOSIG
الضغط 30.15 في
وضوح الرؤية -9999.0 أميال
سحابات
نقطة الندى 39 °F
الرطوبة 71%
Rainfall 0.00 في
عمق الثلج Not available.
6:44 AM 5:17 PM
الهلال الأخير, 16% visible
METAR ORMM 232000Z 28008KT CAVOK 09/04 Q1021 NOSIG

Get Your Daily Forecast Email!

Thanks for signing up!

Be on the lookout for a verification email in your inbox.

You'll start receiving the daily forecast at 8 AM.

×

10-Day Weather Forecast

No radar image for this location.
×

Almanac

علم الفلك

Jan. 23, 2017 Rise Set
Actual Time
Civil Twilight
Nautical Twilight
Astronomical Twilight
قمر
Length Of Visible Light
طول الیوم
Tomorrow will be .
, % of the Moon is Illuminated

Today's Extremes

Country Highs Country Lows

Community

WunderPhotos

Upload Photos

1,962,540 photos uploaded!

WunderBlog® & News

Nearby

جودة الهواء

  جودة الهواء AQ Index Pollutant
Not available.

عمق الثلج

Station Depth Elevation

Earthquake Activity

City Distance Mag. Time & Date
Minimum magnitude displayed is 2.5.

Coastal Water Temperatures

مكان درجات الحرارة

Stations

Nearby Weather Stations

Station Location الحرارة رياح باردة نقطة الندى الرطوبة ريح Precip. Elev تحديث Type